Terminal Aerodrome Forecast
Issued by NWS

Home | Current Version | Previous Version | Text Only | Print | Product List | Glossary On
Versions: 1 2 3 4 5 6 7 8 9 10 11 12 13 14 15 16
132
FTUS41 KBGM 082320
TAFITH
TAF
KITH 082320Z 0900/0924 14008KT P6SM BKN050 OVC100
      TEMPO 0906/0910 4SM -SHSN OVC025
     FM091200 17006KT P6SM OVC035
     FM092000 VRB04KT P6SM BKN050 OVC150
      TEMPO 0923/0924 5SM -SN OVC030=

USA.gov is the U.S. government's official web portal to all federal, state and local government web resources and services.